Crofton, Maryland
Current Conditions -  °F | °C
As of 1:27 AM on Wednesday 26 Nov 2014 (Local Time) from KFME Reporting Station
Overcast Overcast  
Wind Chill: 41°   Ceiling: 8000
Heat Index: 41°   Visibility: 10mi
Dew Point: 36°   Wind: 0mph
Humidity: 81%   Direction: NA
Pressure: 30.18"   Gusts: NA
Location:  39.01°N, 76.69°W
Report Text: KFME 260627Z AUTO 00000KT 10SM BKN080 OVC090 05/02 A3018 RMK AO1
Loading
Personal Weather Stations






























Interactive Weather Map New forecast layout! Learn more

10-Day Weather Forecast

Advertisements
Track Severe Weather on mobile